Houston, TX

10:40 PM CDT on July 07, 2015 (GMT -0500)
George Bush Intercontinental-Houston Airport | | Change Station
CLOSE
Current Station
Airport
Location: Houston Intercontinental,
Elevation: 108 ft
Nearby Weather Stations

Elev 108 ft 29.98 °N, 95.34 °W | Updated 47 minutes ago

Mostly Cloudy
Mostly Cloudy
84 °F
Feels Like 93 °F
N
10
Wind Variable Wind from South

Today
High -- | Low -- °F
--% Chance of Precip.
Yesterday
High -- | Low -- °F
Precip. -- in
6:26 AM 8:25 PM
Waning Gibbous, 58% visible
Pressure 30.02 in
Visibility 9.0 miles
Clouds Few 2200 ft
Scattered Clouds 3500 ft
Mostly Cloudy 25000 ft
Heat Index 93 °F
Dew Point 76 °F
Humidity 76%
Rainfall 0.00 in
Snow Depth Not available.
UV 0 out of 12
Pollen 3.80 out of 12
Air Quality Not available.
Flu Activity Not available.
METAR KIAH 080253Z 17009KT 9SM FEW022 SCT035 BKN250 29/24 A3002 RMK AO2 SLP164 T02890244 53012

More Conditions Fewer Conditions

Pressure 30.02 in
Visibility 9.0 miles
Clouds Few 2200 ft
Scattered Clouds 3500 ft
Mostly Cloudy 25000 ft
Heat Index 93 °F
Dew Point 76 °F
Humidity 76%
Rainfall 0.00 in
Snow Depth Not available.
UV 0 out of 12
Pollen 3.80 out of 12
Air Quality Not available.
Flu Activity Not available.
METAR KIAH 080253Z 17009KT 9SM FEW022 SCT035 BKN250 29/24 A3002 RMK AO2 SLP164 T02890244 53012

More Conditions Fewer Conditions

10-Day Weather Forecast

×

Almanac

Astronomy

Jul. 07, 2015 Rise Set
Actual Time
Civil Twilight
Nautical Twilight
Astronomical Twilight
Moon
Length of Visible Light
Length of Day
Tomorrow will be .
, % of the Moon is Illuminated

Today's Extremes

State Highs State Lows

Community

WunderPhotos

Upload Photos

1,836,037 photos uploaded!

WunderBlogs® & News

Nearby

Air Quality

  Air Quality AQ Index Pollutant
Not available.

Snow Depth

Station Depth Elevation

Earthquake Activity

City Distance Mag. Time & Date
Minimum magnitude displayed is 2.5.

Coastal Water Temperatures

Place Temperature

Stations

Nearby Weather Stations

Station Location Temp. Windchill Dew Point Humidity Wind Precip. Elev Updated Type